createdAt,value
2017-06-05T00:01:24.502Z,11.90
2017-06-05T00:03:51.962Z,12.20
2017-06-05T00:06:19.434Z,12.20
2017-06-05T00:08:46.873Z,12.20
2017-06-05T00:11:14.330Z,12.20
2017-06-05T00:13:41.790Z,12.20
2017-06-05T00:16:09.253Z,12.10
2017-06-05T00:18:36.708Z,12.00
2017-06-05T00:21:04.166Z,12.10
2017-06-05T00:23:31.621Z,12.10
2017-06-05T00:25:59.125Z,12.00
2017-06-05T00:28:26.586Z,11.90
2017-06-05T00:30:54.035Z,11.90
2017-06-05T00:33:21.493Z,11.80
2017-06-05T00:35:49.041Z,11.80
2017-06-05T00:38:16.497Z,11.70
2017-06-05T00:40:43.958Z,11.80
2017-06-05T00:43:11.423Z,11.90
2017-06-05T00:45:38.896Z,11.80
2017-06-05T00:48:07.107Z,11.60
2017-06-05T00:50:34.601Z,11.60
2017-06-05T00:53:02.050Z,11.60
2017-06-05T00:55:29.514Z,11.70
2017-06-05T00:57:56.999Z,11.70
2017-06-05T01:00:24.456Z,11.70
2017-06-05T01:02:52.713Z,11.70
2017-06-05T01:05:20.185Z,11.70
2017-06-05T01:07:48.439Z,11.40
2017-06-05T01:10:15.997Z,11.40
2017-06-05T01:12:43.446Z,11.40
2017-06-05T01:15:10.930Z,11.30
2017-06-05T01:17:39.162Z,11.20
2017-06-05T01:20:06.635Z,11.10
2017-06-05T01:22:34.213Z,11.20
2017-06-05T01:25:01.665Z,11.20
2017-06-05T01:27:29.158Z,11.20
2017-06-05T01:29:56.614Z,11.10
2017-06-05T01:32:24.065Z,11.00
2017-06-05T01:34:51.533Z,10.80
2017-06-05T01:37:19.061Z,10.90
2017-06-05T01:39:46.534Z,11.00
2017-06-05T01:42:14.745Z,11.10
2017-06-05T01:44:42.217Z,11.00
2017-06-05T01:47:09.677Z,11.10
2017-06-05T01:49:37.173Z,11.10
2017-06-05T01:52:05.430Z,11.00
2017-06-05T01:54:32.891Z,11.00
2017-06-05T01:57:00.349Z,10.90
2017-06-05T01:59:27.806Z,10.80
2017-06-05T02:01:55.373Z,10.80
2017-06-05T02:04:22.830Z,10.90
2017-06-05T02:06:51.093Z,11.10
2017-06-05T02:09:18.546Z,11.10
2017-06-05T02:11:45.997Z,11.20
2017-06-05T02:14:13.465Z,11.10
2017-06-05T02:16:40.914Z,11.20
2017-06-05T02:19:08.481Z,11.10
2017-06-05T02:21:35.925Z,11.20
2017-06-05T02:24:03.389Z,11.10
2017-06-05T02:26:30.845Z,11.10
2017-06-05T02:28:58.410Z,11.20
2017-06-05T02:31:25.870Z,11.20
2017-06-05T02:33:53.326Z,11.20
2017-06-05T02:36:20.894Z,11.20
2017-06-05T02:38:48.341Z,11.10
2017-06-05T02:41:15.902Z,10.90
2017-06-05T02:43:43.355Z,10.90
2017-06-05T02:46:11.806Z,10.90
2017-06-05T02:48:39.258Z,11.00
2017-06-05T02:51:06.707Z,11.10
2017-06-05T02:53:34.174Z,11.00
2017-06-05T02:56:01.665Z,11.00
2017-06-05T02:58:29.126Z,10.80
2017-06-05T03:00:56.577Z,10.50
2017-06-05T03:03:24.038Z,10.30
2017-06-05T03:05:51.504Z,10.40
2017-06-05T03:08:19.051Z,10.50
2017-06-05T03:10:46.518Z,10.70
2017-06-05T03:13:13.976Z,10.90
2017-06-05T03:15:41.533Z,11.00
2017-06-05T03:18:09.018Z,11.10
2017-06-05T03:20:36.473Z,11.10
2017-06-05T03:23:04.685Z,11.00
2017-06-05T03:25:32.138Z,11.00
2017-06-05T03:27:59.601Z,11.00
2017-06-05T03:30:27.073Z,11.00
2017-06-05T03:32:54.545Z,10.90
2017-06-05T03:35:22.010Z,10.90
2017-06-05T03:37:49.494Z,10.80
2017-06-05T03:40:16.956Z,10.70
2017-06-05T03:42:44.402Z,10.70
2017-06-05T03:45:12.708Z,10.90
2017-06-05T03:47:40.155Z,10.90
2017-06-05T03:50:07.609Z,11.10
2017-06-05T03:52:35.057Z,11.20
2017-06-05T03:55:02.542Z,11.30
2017-06-05T03:57:29.994Z,11.20
2017-06-05T03:59:57.447Z,11.20
2017-06-05T04:02:24.910Z,11.20
2017-06-05T04:04:52.365Z,11.30
2017-06-05T04:07:19.854Z,11.50
2017-06-05T04:09:47.382Z,11.70
2017-06-05T04:12:14.869Z,11.80
2017-06-05T04:14:42.437Z,11.80
2017-06-05T04:17:09.890Z,11.90
2017-06-05T04:19:37.452Z,12.00
2017-06-05T04:22:05.009Z,12.20
2017-06-05T04:24:32.469Z,12.20
2017-06-05T04:27:00.030Z,12.20
2017-06-05T04:29:27.505Z,12.20
2017-06-05T04:31:55.722Z,12.50
2017-06-05T04:34:23.169Z,12.50
2017-06-05T04:36:50.638Z,12.70
2017-06-05T04:39:18.094Z,12.90
2017-06-05T04:41:45.553Z,13.00
2017-06-05T04:44:13.017Z,13.10
2017-06-05T04:46:40.509Z,13.20
2017-06-05T04:49:07.962Z,13.30
2017-06-05T04:51:35.405Z,13.40
2017-06-05T04:54:02.859Z,13.60
2017-06-05T04:56:30.309Z,13.80
2017-06-05T04:58:57.782Z,13.90
2017-06-05T05:01:25.229Z,14.10
2017-06-05T05:03:52.697Z,14.30
2017-06-05T05:06:20.138Z,14.50
2017-06-05T05:08:47.602Z,14.60
2017-06-05T05:11:15.054Z,14.80
2017-06-05T05:13:42.533Z,15.00
2017-06-05T05:16:09.978Z,15.20
2017-06-05T05:18:37.470Z,15.40
2017-06-05T05:21:04.934Z,15.20
2017-06-05T05:23:33.153Z,15.00
2017-06-05T05:26:00.613Z,15.00
2017-06-05T05:28:28.057Z,15.10
2017-06-05T05:30:55.554Z,15.20
2017-06-05T05:33:23.016Z,15.40
2017-06-05T05:35:51.229Z,16.20
2017-06-05T05:38:18.701Z,16.10
2017-06-05T05:40:46.158Z,16.30
2017-06-05T05:43:13.621Z,16.40
2017-06-05T05:45:41.087Z,16.50
2017-06-05T05:48:08.559Z,16.50
2017-06-05T05:50:36.009Z,16.60
2017-06-05T05:53:03.458Z,16.80
2017-06-05T05:55:30.914Z,17.10
2017-06-05T05:57:58.374Z,17.80
2017-06-05T06:00:25.831Z,18.60
2017-06-05T06:02:53.288Z,19.10
2017-06-05T06:05:20.749Z,19.00
2017-06-05T06:07:48.205Z,18.90
2017-06-05T06:10:15.670Z,18.90
2017-06-05T06:12:43.118Z,18.90
2017-06-05T06:15:10.578Z,18.90
2017-06-05T06:17:38.034Z,18.70
2017-06-05T06:20:05.499Z,18.90
2017-06-05T06:22:32.942Z,18.80
2017-06-05T06:25:00.390Z,18.70
2017-06-05T06:27:27.849Z,18.50
2017-06-05T06:29:55.303Z,18.50
2017-06-05T06:32:22.769Z,18.70
2017-06-05T06:34:50.234Z,19.10
2017-06-05T06:37:17.690Z,19.40
2017-06-05T06:39:45.142Z,19.30
2017-06-05T06:42:12.590Z,18.80
2017-06-05T06:44:40.053Z,18.90
2017-06-05T06:47:07.502Z,19.10
2017-06-05T06:49:34.986Z,19.50
2017-06-05T06:52:02.432Z,19.80
2017-06-05T06:54:29.877Z,19.80
2017-06-05T06:56:57.342Z,19.80
2017-06-05T06:59:24.786Z,19.90
2017-06-05T07:01:52.257Z,20.20
2017-06-05T07:04:19.705Z,20.40
2017-06-05T07:06:47.178Z,20.40
2017-06-05T07:09:14.627Z,20.20
2017-06-05T07:11:42.086Z,20.20
2017-06-05T07:14:09.540Z,20.50
2017-06-05T07:16:37.015Z,20.80
2017-06-05T07:19:04.465Z,20.90
2017-06-05T07:21:31.910Z,21.20
2017-06-05T07:23:59.376Z,21.80
2017-06-05T07:26:26.821Z,21.80
2017-06-05T07:28:54.279Z,22.00
2017-06-05T07:31:21.732Z,22.00
2017-06-05T07:33:49.204Z,21.80
2017-06-05T07:36:16.672Z,22.00
2017-06-05T07:38:44.118Z,22.20
2017-06-05T07:41:11.591Z,22.30
2017-06-05T07:43:39.060Z,22.50
2017-06-05T07:46:07.294Z,22.90
2017-06-05T07:48:34.754Z,22.80
2017-06-05T07:51:02.219Z,23.40
2017-06-05T07:53:29.675Z,23.80
2017-06-05T07:55:57.121Z,24.00
2017-06-05T07:58:24.585Z,24.30
2017-06-05T08:00:52.040Z,24.40
2017-06-05T08:03:19.509Z,24.60
2017-06-05T08:05:46.965Z,24.90
2017-06-05T08:08:14.441Z,25.50
2017-06-05T08:10:42.662Z,26.20
2017-06-05T08:13:10.110Z,26.10
2017-06-05T08:15:37.586Z,25.60
2017-06-05T08:18:05.045Z,25.20
2017-06-05T08:20:32.510Z,25.10
2017-06-05T08:22:59.957Z,25.00
2017-06-05T08:25:27.413Z,25.20
2017-06-05T08:27:54.865Z,25.60
2017-06-05T08:30:22.346Z,25.50
2017-06-05T08:32:49.798Z,25.60
2017-06-05T08:35:18.228Z,25.70
2017-06-05T08:37:46.502Z,25.20
2017-06-05T08:40:14.712Z,24.50
2017-06-05T08:42:42.182Z,24.40
2017-06-05T08:45:09.642Z,24.10
2017-06-05T08:47:37.101Z,23.90
2017-06-05T08:50:04.566Z,23.60
2017-06-05T08:52:32.038Z,23.50
2017-06-05T08:54:59.487Z,23.60
2017-06-05T08:57:26.950Z,23.80
2017-06-05T08:59:54.390Z,24.30
2017-06-05T09:02:21.870Z,24.50
2017-06-05T09:04:49.317Z,24.70
2017-06-05T09:07:16.771Z,24.70
2017-06-05T09:09:44.240Z,24.30
2017-06-05T09:12:11.693Z,24.10
2017-06-05T09:14:39.153Z,24.00
2017-06-05T09:17:06.609Z,23.90
2017-06-05T09:19:34.089Z,24.00
2017-06-05T09:22:08.056Z,24.00
2017-06-05T09:24:35.541Z,24.00
2017-06-05T09:27:04.792Z,24.00
2017-06-05T09:29:32.248Z,23.80
2017-06-05T09:31:59.716Z,24.10
2017-06-05T09:34:27.162Z,24.40
2017-06-05T09:36:54.622Z,24.60
2017-06-05T09:39:22.094Z,24.60
2017-06-05T09:41:49.568Z,25.70
2017-06-05T09:44:17.029Z,25.30
2017-06-05T09:46:44.481Z,24.80
2017-06-05T09:49:11.954Z,25.20
2017-06-05T09:51:40.177Z,24.30
2017-06-05T09:54:07.645Z,24.30
2017-06-05T09:56:35.094Z,24.50
2017-06-05T09:59:02.573Z,24.60
2017-06-05T10:01:30.025Z,25.10
2017-06-05T10:03:57.494Z,25.10
2017-06-05T10:06:24.962Z,24.70
2017-06-05T10:08:52.414Z,24.50
2017-06-05T10:11:19.873Z,24.60
2017-06-05T10:13:47.326Z,24.50
2017-06-05T10:16:14.818Z,24.10
2017-06-05T10:18:42.287Z,24.10
2017-06-05T10:21:09.730Z,24.20
2017-06-05T10:23:37.961Z,23.70
2017-06-05T10:26:05.418Z,23.70
2017-06-05T10:31:06.885Z,23.60
2017-06-05T10:33:34.357Z,23.90
2017-06-05T10:36:01.818Z,23.90
2017-06-05T10:38:29.282Z,24.20
2017-06-05T10:40:56.741Z,24.50
2017-06-05T10:43:24.186Z,24.40
2017-06-05T10:45:51.649Z,24.00
2017-06-05T10:48:19.089Z,23.80
2017-06-05T10:50:46.566Z,24.20
2017-06-05T10:53:14.016Z,24.50
2017-06-05T10:55:41.457Z,24.30
2017-06-05T10:58:08.946Z,24.00
2017-06-05T11:00:37.163Z,24.10
2017-06-05T11:03:04.641Z,24.10
2017-06-05T11:05:32.093Z,23.90
2017-06-05T11:07:59.537Z,23.80
2017-06-05T11:10:27.016Z,23.90
2017-06-05T11:12:54.473Z,23.90
2017-06-05T11:15:21.930Z,24.00
2017-06-05T11:17:49.403Z,23.60
2017-06-05T11:20:16.850Z,22.90
2017-06-05T11:22:44.321Z,23.00
2017-06-05T11:25:11.766Z,23.30
2017-06-05T11:27:39.214Z,23.00
2017-06-05T11:30:06.685Z,22.60
2017-06-05T11:32:34.121Z,22.60
2017-06-05T11:35:01.586Z,22.40
2017-06-05T11:37:29.051Z,22.80
2017-06-05T11:39:56.501Z,22.90
2017-06-05T11:42:23.954Z,22.70
2017-06-05T11:44:51.415Z,22.80
2017-06-05T11:47:18.869Z,22.90
2017-06-05T11:49:46.326Z,22.50
2017-06-05T11:52:13.785Z,23.20
2017-06-05T11:54:41.249Z,23.80
2017-06-05T11:57:08.707Z,24.50
2017-06-05T11:59:36.156Z,23.80
2017-06-05T12:02:03.617Z,23.60
2017-06-05T12:04:31.081Z,23.30
2017-06-05T12:06:58.549Z,22.80
2017-06-05T12:09:26.009Z,22.80
2017-06-05T12:11:53.458Z,23.00
2017-06-05T12:14:20.931Z,23.30
2017-06-05T12:16:49.149Z,23.20
2017-06-05T12:19:16.629Z,23.20
2017-06-05T12:21:44.085Z,23.20
2017-06-05T12:24:11.551Z,23.50
2017-06-05T12:26:39.023Z,23.40
2017-06-05T12:29:06.505Z,23.10
2017-06-05T12:31:33.957Z,23.30
2017-06-05T12:34:02.230Z,24.60
2017-06-05T12:36:29.698Z,24.60
2017-06-05T12:38:57.527Z,25.50
2017-06-05T12:41:24.966Z,25.90
2017-06-05T12:43:52.441Z,26.60
2017-06-05T12:46:19.898Z,26.80
2017-06-05T12:48:47.346Z,26.80
2017-06-05T12:51:14.817Z,26.90
2017-06-05T12:53:42.273Z,27.30
2017-06-05T12:56:09.740Z,27.40
2017-06-05T12:58:37.198Z,27.00
2017-06-05T13:01:04.641Z,26.10
2017-06-05T13:03:32.105Z,25.30
2017-06-05T13:05:59.564Z,24.50
2017-06-05T13:08:27.018Z,24.20
2017-06-05T13:10:54.471Z,24.40
2017-06-05T13:13:21.953Z,24.60
2017-06-05T13:15:50.170Z,25.10
2017-06-05T13:18:17.626Z,25.00
2017-06-05T13:20:45.090Z,24.80
2017-06-05T13:23:12.562Z,24.70
2017-06-05T13:25:40.010Z,24.60
2017-06-05T13:28:07.470Z,24.60
2017-06-05T13:30:34.922Z,24.70
2017-06-05T13:33:02.389Z,25.20
2017-06-05T13:35:29.841Z,25.40
2017-06-05T13:37:57.317Z,25.60
2017-06-05T13:40:24.778Z,26.20
2017-06-05T13:42:52.241Z,26.90
2017-06-05T13:45:19.715Z,27.40
2017-06-05T13:47:47.926Z,26.90
2017-06-05T13:50:15.382Z,26.90
2017-06-05T13:52:42.835Z,26.60
2017-06-05T13:55:10.318Z,26.80
2017-06-05T13:57:37.765Z,26.60
2017-06-05T14:00:05.214Z,26.80
2017-06-05T14:02:32.701Z,27.10
2017-06-05T14:05:00.157Z,27.40
2017-06-05T14:07:28.596Z,27.40
2017-06-05T14:09:56.037Z,27.60
2017-06-05T14:12:23.501Z,27.60
2017-06-05T14:14:50.959Z,27.60
2017-06-05T14:17:18.426Z,27.60
2017-06-05T14:19:45.865Z,27.70
2017-06-05T14:22:13.333Z,28.50
2017-06-05T14:24:40.778Z,29.60
2017-06-05T14:27:08.237Z,30.60
2017-06-05T14:29:35.689Z,31.40
2017-06-05T14:32:03.159Z,31.20
2017-06-05T14:34:30.594Z,30.40
2017-06-05T14:36:58.846Z,29.60
2017-06-05T14:39:26.302Z,29.60
2017-06-05T14:41:53.745Z,29.30
2017-06-05T14:44:21.209Z,29.40
2017-06-05T14:46:48.661Z,29.30
2017-06-05T14:49:16.130Z,29.20
2017-06-05T14:51:43.581Z,28.20
2017-06-05T14:54:11.042Z,27.30
2017-06-05T14:56:38.507Z,27.30
2017-06-05T14:59:05.965Z,27.10
2017-06-05T15:01:34.190Z,27.10
2017-06-05T15:04:01.664Z,27.00
2017-06-05T15:06:29.126Z,26.60
2017-06-05T15:08:56.599Z,26.30
2017-06-05T15:11:24.042Z,25.90
2017-06-05T15:13:51.493Z,25.90
2017-06-05T15:16:18.953Z,25.90
2017-06-05T15:18:46.406Z,25.90
2017-06-05T15:21:13.870Z,25.60
2017-06-05T15:23:41.316Z,25.80
2017-06-05T15:26:08.773Z,26.10
2017-06-05T15:28:36.225Z,26.30
2017-06-05T15:31:03.689Z,26.60
2017-06-05T15:33:31.153Z,26.90
2017-06-05T15:35:58.614Z,27.50
2017-06-05T15:38:26.301Z,27.60
2017-06-05T15:40:53.778Z,27.60
2017-06-05T15:43:21.225Z,27.40
2017-06-05T15:45:49.445Z,25.60
2017-06-05T15:48:16.902Z,25.50
2017-06-05T15:50:44.365Z,25.60
2017-06-05T15:53:11.821Z,26.50
2017-06-05T15:55:39.273Z,26.80
2017-06-05T15:58:06.729Z,26.80
2017-06-05T16:00:34.181Z,26.20
2017-06-05T16:03:01.665Z,25.10
2017-06-05T16:05:29.106Z,25.40
2017-06-05T16:07:56.577Z,26.10
2017-06-05T16:10:24.022Z,25.90
2017-06-05T16:12:51.512Z,25.10
2017-06-05T16:15:18.962Z,24.50
2017-06-05T16:17:46.409Z,24.60
2017-06-05T16:20:13.874Z,25.00
2017-06-05T16:22:41.333Z,25.10
2017-06-05T16:25:08.801Z,25.00
2017-06-05T16:27:36.249Z,25.00
2017-06-05T16:30:03.723Z,25.10
2017-06-05T16:32:31.941Z,25.50
2017-06-05T16:34:59.405Z,25.50
2017-06-05T16:37:26.853Z,25.90
2017-06-05T16:39:54.317Z,25.40
2017-06-05T16:42:21.770Z,24.40
2017-06-05T16:44:49.261Z,23.50
2017-06-05T16:47:16.709Z,22.80
2017-06-05T16:49:44.161Z,22.60
2017-06-05T16:52:11.633Z,22.70
2017-06-05T16:54:39.098Z,23.40
2017-06-05T16:57:06.554Z,23.90
2017-06-05T16:59:34.040Z,24.10
2017-06-05T17:02:01.479Z,23.40
2017-06-05T17:04:29.701Z,22.70
2017-06-05T17:06:57.167Z,22.70
2017-06-05T17:09:24.613Z,22.90
2017-06-05T17:11:52.173Z,22.60
2017-06-05T17:14:19.617Z,22.30
2017-06-05T17:16:47.067Z,21.90
2017-06-05T17:19:14.531Z,21.70
2017-06-05T17:21:41.974Z,21.70
2017-06-05T17:24:09.434Z,21.70
2017-06-05T17:26:36.882Z,21.60
2017-06-05T17:29:04.341Z,21.40
2017-06-05T17:31:31.791Z,21.20
2017-06-05T17:34:00.025Z,21.50
2017-06-05T17:36:27.474Z,21.50
2017-06-05T17:38:54.946Z,21.50
2017-06-05T17:41:22.389Z,21.20
2017-06-05T17:43:49.837Z,21.30
2017-06-05T17:46:17.306Z,21.30
2017-06-05T17:48:44.745Z,21.00
2017-06-05T17:51:12.209Z,21.10
2017-06-05T17:53:39.670Z,21.10
2017-06-05T17:56:07.144Z,21.00
2017-06-05T17:58:34.589Z,20.90
2017-06-05T18:01:02.049Z,20.90
2017-06-05T18:03:29.510Z,20.50
2017-06-05T18:05:56.965Z,20.20
2017-06-05T18:08:24.414Z,20.10
2017-06-05T18:10:51.885Z,19.90
2017-06-05T18:13:19.334Z,19.80
2017-06-05T18:15:46.822Z,19.70
2017-06-05T18:18:14.265Z,19.80
2017-06-05T18:20:41.717Z,19.90
2017-06-05T18:23:09.178Z,19.90
2017-06-05T18:25:36.642Z,19.50
2017-06-05T18:28:04.106Z,19.10
2017-06-05T18:30:31.562Z,18.60
2017-06-05T18:32:59.789Z,18.30
2017-06-05T18:35:27.239Z,18.20
2017-06-05T18:37:54.702Z,18.10
2017-06-05T18:40:22.154Z,18.00
2017-06-05T18:42:49.618Z,17.90
2017-06-05T18:45:17.071Z,17.80
2017-06-05T18:47:44.550Z,17.70
2017-06-05T18:50:11.998Z,17.60
2017-06-05T18:52:39.461Z,17.60
2017-06-05T18:55:06.921Z,17.70
2017-06-05T18:57:34.375Z,17.70
2017-06-05T19:00:01.837Z,17.70
2017-06-05T19:02:29.282Z,17.70
2017-06-05T19:04:56.749Z,17.70
2017-06-05T19:07:24.201Z,17.80
2017-06-05T19:09:51.673Z,17.80
2017-06-05T19:12:19.121Z,17.50
2017-06-05T19:14:46.587Z,17.40
2017-06-05T19:17:14.026Z,17.30
2017-06-05T19:19:41.493Z,17.20
2017-06-05T19:22:08.938Z,17.30
2017-06-05T19:24:36.409Z,17.20
2017-06-05T19:27:03.872Z,17.10
2017-06-05T19:29:31.337Z,17.00
2017-06-05T19:31:58.793Z,16.90
2017-06-05T19:34:26.249Z,16.80
2017-06-05T19:36:53.703Z,16.70
2017-06-05T19:39:21.262Z,16.60
2017-06-05T19:41:48.705Z,16.20
2017-06-05T19:44:16.177Z,15.90
2017-06-05T19:46:43.631Z,15.70
2017-06-05T19:49:11.174Z,15.60
2017-06-05T19:51:38.613Z,15.70
2017-06-05T19:54:06.105Z,15.60
2017-06-05T19:56:33.574Z,15.50
2017-06-05T19:59:01.025Z,15.40
2017-06-05T20:01:28.500Z,15.40
2017-06-05T20:03:56.718Z,15.50
2017-06-05T20:06:24.205Z,15.50
2017-06-05T20:08:51.770Z,15.40
2017-06-05T20:11:19.229Z,15.40
2017-06-05T20:13:46.790Z,15.50
2017-06-05T20:16:14.257Z,15.50
2017-06-05T20:18:41.712Z,15.60
2017-06-05T20:21:09.186Z,15.60
2017-06-05T20:23:37.397Z,15.60
2017-06-05T20:26:04.865Z,15.50
2017-06-05T20:28:32.332Z,15.50
2017-06-05T20:30:59.789Z,15.50
2017-06-05T20:33:27.242Z,15.60
2017-06-05T20:35:54.701Z,15.50
2017-06-05T20:38:22.145Z,15.40
2017-06-05T20:40:49.601Z,15.40
2017-06-05T20:43:17.067Z,15.50
2017-06-05T20:45:44.509Z,15.50
2017-06-05T20:48:11.965Z,15.60
2017-06-05T20:50:39.413Z,15.50
2017-06-05T20:53:06.886Z,15.40
2017-06-05T20:55:34.346Z,15.30
2017-06-05T20:58:25.793Z,15.20
2017-06-05T21:00:53.242Z,15.10
2017-06-05T21:03:20.704Z,14.90
2017-06-05T21:05:48.153Z,14.90
2017-06-05T21:08:15.616Z,14.80
2017-06-05T21:10:43.065Z,14.60
2017-06-05T21:13:10.534Z,14.30
2017-06-05T21:15:37.977Z,14.10
2017-06-05T21:18:05.442Z,14.20
2017-06-05T21:20:32.893Z,14.30
2017-06-05T21:23:00.353Z,14.40
2017-06-05T21:25:27.815Z,14.30
2017-06-05T21:27:55.283Z,14.30
2017-06-05T21:30:22.733Z,14.30
2017-06-05T21:32:50.199Z,14.50
2017-06-05T21:35:17.641Z,14.50
2017-06-05T21:38:20.341Z,14.50
2017-06-05T21:40:47.794Z,14.50
2017-06-05T21:43:15.245Z,14.50
2017-06-05T21:45:42.697Z,14.50
2017-06-05T21:48:10.170Z,14.50
2017-06-05T21:50:37.617Z,14.50
2017-06-05T21:53:05.075Z,14.50
2017-06-05T21:55:32.538Z,14.50
2017-06-05T21:57:59.989Z,14.50
2017-06-05T22:00:27.450Z,14.30
2017-06-05T22:02:54.897Z,14.20
2017-06-05T22:05:22.357Z,14.10
2017-06-05T22:07:49.805Z,14.10
2017-06-05T22:10:17.273Z,14.10
2017-06-05T22:12:44.717Z,13.90
2017-06-05T22:15:12.173Z,13.80
2017-06-05T22:17:39.617Z,13.70
2017-06-05T22:20:07.077Z,13.80
2017-06-05T22:22:34.532Z,13.90
2017-06-05T22:25:01.973Z,13.90
2017-06-05T22:27:29.433Z,14.00
2017-06-05T22:29:56.878Z,14.00
2017-06-05T22:32:24.345Z,14.00
2017-06-05T22:34:51.800Z,14.00
2017-06-05T22:37:19.269Z,14.00
2017-06-05T22:39:46.737Z,14.00
2017-06-05T22:42:14.210Z,13.60
2017-06-05T22:44:41.657Z,13.30
2017-06-05T22:47:09.117Z,13.10
2017-06-05T22:49:36.577Z,12.80
2017-06-05T22:52:04.034Z,12.60
2017-06-05T22:54:31.482Z,12.60
2017-06-05T22:56:58.949Z,12.50
2017-06-05T22:59:27.378Z,12.30
2017-06-05T23:01:54.857Z,12.40
2017-06-05T23:04:22.309Z,12.40
2017-06-05T23:06:49.772Z,12.40
2017-06-05T23:09:17.249Z,12.40
2017-06-05T23:11:44.715Z,12.40
2017-06-05T23:14:12.183Z,12.30
2017-06-05T23:16:39.629Z,12.20
2017-06-05T23:19:07.096Z,12.10
2017-06-05T23:21:34.554Z,12.10
2017-06-05T23:24:02.017Z,12.20
2017-06-05T23:26:29.473Z,12.10
2017-06-05T23:28:56.945Z,12.10
2017-06-05T23:31:25.161Z,12.10
2017-06-05T23:33:52.617Z,12.10
2017-06-05T23:36:20.078Z,12.00
2017-06-05T23:38:47.565Z,12.00
2017-06-05T23:41:15.021Z,12.30
2017-06-05T23:43:42.487Z,12.50
2017-06-05T23:46:09.937Z,12.90
2017-06-05T23:48:37.381Z,13.30
2017-06-05T23:51:04.842Z,13.50
2017-06-05T23:53:32.304Z,13.40
2017-06-05T23:55:59.769Z,13.10
2017-06-05T23:58:33.568Z,12.80
